createdAt,value
2023-04-18T00:02:45.813Z,91.06
2023-04-18T00:07:50.063Z,90.88
2023-04-18T00:12:53.773Z,90.69
2023-04-18T00:17:57.639Z,90.81
2023-04-18T00:23:02.279Z,90.73
2023-04-18T00:28:06.180Z,90.85
2023-04-18T00:33:10.019Z,90.77
2023-04-18T00:38:13.741Z,90.43
2023-04-18T00:43:17.630Z,90.57
2023-04-18T00:48:21.494Z,90.69
2023-04-18T00:53:25.383Z,90.83
2023-04-18T00:58:29.218Z,90.86
2023-04-18T01:03:35.634Z,90.85
2023-04-18T01:08:39.583Z,90.93
2023-04-18T01:13:43.334Z,91.08
2023-04-18T01:18:47.444Z,90.96
2023-04-18T01:23:51.916Z,91.00
2023-04-18T01:28:55.972Z,91.55
2023-04-18T01:33:59.961Z,91.03
2023-04-18T01:39:03.940Z,91.30
2023-04-18T01:44:07.717Z,91.11
2023-04-18T01:49:11.493Z,91.19
2023-04-18T01:54:15.558Z,91.24
2023-04-18T01:59:19.452Z,91.41
2023-04-18T02:04:23.415Z,91.23
2023-04-18T02:09:27.360Z,91.70
2023-04-18T02:14:32.662Z,91.71
2023-04-18T02:19:37.375Z,91.70
2023-04-18T02:24:41.103Z,91.49
2023-04-18T02:29:44.775Z,91.38
2023-04-18T02:34:48.466Z,91.39
2023-04-18T02:39:54.295Z,91.48
2023-04-18T02:44:58.334Z,91.66
2023-04-18T02:50:04.024Z,91.49
2023-04-18T02:55:09.226Z,91.43
2023-04-18T03:00:15.296Z,91.39
2023-04-18T03:05:37.552Z,91.33
2023-04-18T03:10:42.238Z,91.28
2023-04-18T03:15:46.495Z,91.15
2023-04-18T03:20:50.300Z,91.32
2023-04-18T03:25:54.619Z,91.47
2023-04-18T03:31:00.081Z,91.56
2023-04-18T03:36:06.513Z,91.26
2023-04-18T03:41:10.282Z,91.19
2023-04-18T03:46:14.941Z,91.09
2023-04-18T03:51:19.422Z,91.23
2023-04-18T03:56:23.734Z,91.09
2023-04-18T04:01:29.392Z,91.11
2023-04-18T04:06:33.240Z,90.94
2023-04-18T04:11:38.196Z,90.93
2023-04-18T04:16:46.702Z,91.18
2023-04-18T04:21:52.964Z,91.01
2023-04-18T04:26:57.572Z,90.99
2023-04-18T04:32:04.076Z,91.17
2023-04-18T04:37:14.264Z,91.01
2023-04-18T04:42:28.943Z,90.85
2023-04-18T04:47:38.900Z,90.89
2023-04-18T04:52:43.349Z,90.89
2023-04-18T04:57:48.039Z,90.72
2023-04-18T05:03:11.347Z,90.67
2023-04-18T05:08:15.437Z,90.67
2023-04-18T05:13:19.114Z,90.76
2023-04-18T05:18:22.905Z,90.70
2023-04-18T05:23:27.351Z,90.81
2023-04-18T05:28:31.187Z,90.88
2023-04-18T05:33:34.895Z,90.92
2023-04-18T05:38:38.686Z,90.78
2023-04-18T05:43:44.446Z,90.82
2023-04-18T05:48:50.099Z,90.88
2023-04-18T05:53:53.990Z,90.97
2023-04-18T05:58:57.651Z,90.89
2023-04-18T06:04:02.057Z,91.03
2023-04-18T06:09:05.843Z,90.95
2023-04-18T06:14:09.478Z,90.92
2023-04-18T06:19:13.052Z,90.99
2023-04-18T06:24:16.895Z,91.26
2023-04-18T06:29:21.154Z,91.23
2023-04-18T06:34:25.212Z,90.90
2023-04-18T06:39:28.898Z,90.93
2023-04-18T06:44:32.578Z,90.78
2023-04-18T06:49:36.260Z,90.74
2023-04-18T06:54:39.852Z,90.44
2023-04-18T06:59:43.556Z,90.35
2023-04-18T07:04:47.576Z,90.20
2023-04-18T07:09:53.103Z,90.19
2023-04-18T07:14:56.927Z,90.08
2023-04-18T07:20:00.870Z,89.99
2023-04-18T07:25:04.836Z,90.00
2023-04-18T07:30:09.468Z,89.81
2023-04-18T07:35:13.707Z,89.68
2023-04-18T07:40:17.975Z,89.89
2023-04-18T07:45:21.906Z,89.70
2023-04-18T07:50:25.523Z,89.40
2023-04-18T07:55:29.213Z,88.73
2023-04-18T08:00:33.054Z,88.56
2023-04-18T08:05:36.921Z,88.48
2023-04-18T08:10:40.537Z,88.50
2023-04-18T08:15:44.095Z,88.16
2023-04-18T08:20:47.721Z,87.37
2023-04-18T08:25:51.436Z,87.95
2023-04-18T08:30:56.870Z,87.10
2023-04-18T08:36:00.499Z,86.96
2023-04-18T08:41:04.236Z,86.71
2023-04-18T08:46:09.511Z,86.88
2023-04-18T08:51:13.139Z,86.46
2023-04-18T08:56:17.265Z,85.77
2023-04-18T09:01:21.789Z,86.06
2023-04-18T09:06:27.842Z,85.99
2023-04-18T09:11:32.763Z,86.07
2023-04-18T09:16:50.947Z,85.81
2023-04-18T09:21:59.834Z,85.96
2023-04-18T09:27:04.372Z,85.71
2023-04-18T09:32:08.027Z,85.06
2023-04-18T09:37:13.852Z,85.16
2023-04-18T09:42:18.606Z,84.20
2023-04-18T09:47:22.371Z,83.72
2023-04-18T09:52:29.415Z,83.72
2023-04-18T09:57:35.173Z,83.45
2023-04-18T10:02:49.440Z,82.52
2023-04-18T10:07:54.120Z,81.72
2023-04-18T10:12:59.227Z,81.45
2023-04-18T10:18:16.735Z,81.48
2023-04-18T10:23:49.340Z,81.29
2023-04-18T10:28:57.784Z,81.20
2023-04-18T10:34:05.600Z,79.66
2023-04-18T10:39:25.757Z,80.04
2023-04-18T10:44:29.440Z,80.13
2023-04-18T10:49:35.878Z,80.10
2023-04-18T10:54:48.411Z,79.66
2023-04-18T10:59:52.904Z,79.13
2023-04-18T11:05:01.039Z,79.48
2023-04-18T11:10:06.586Z,78.96
2023-04-18T11:15:12.522Z,79.44
2023-04-18T11:20:16.162Z,80.10
2023-04-18T11:25:24.072Z,80.76
2023-04-18T11:30:28.540Z,80.93
2023-04-18T11:35:37.646Z,81.47
2023-04-18T11:40:48.678Z,81.01
2023-04-18T11:45:57.032Z,80.22
2023-04-18T11:51:01.459Z,78.99
2023-04-18T11:56:05.918Z,78.72
2023-04-18T12:01:23.184Z,77.29
2023-04-18T12:06:28.621Z,75.76
2023-04-18T12:11:32.388Z,75.78
2023-04-18T12:16:36.376Z,76.72
2023-04-18T12:21:55.756Z,76.77
2023-04-18T12:26:59.943Z,75.68
2023-04-18T12:32:03.832Z,75.18
2023-04-18T12:37:07.577Z,71.56
2023-04-18T12:42:11.341Z,70.74
2023-04-18T12:47:15.076Z,71.39
2023-04-18T12:58:56.158Z,72.43
2023-04-18T13:04:10.801Z,71.81
2023-04-18T13:09:17.138Z,70.69
2023-04-18T13:14:21.554Z,71.84
2023-04-18T13:19:25.391Z,72.62
2023-04-18T13:24:29.048Z,72.86
2023-04-18T13:29:32.811Z,73.72
2023-04-18T13:34:48.200Z,71.93
2023-04-18T13:39:51.925Z,71.71
2023-04-18T13:44:55.710Z,71.75
2023-04-18T13:49:59.857Z,71.21
2023-04-18T13:55:04.300Z,69.53
2023-04-18T14:00:09.674Z,69.71
2023-04-18T14:05:16.758Z,68.68
2023-04-18T14:10:21.989Z,68.33
2023-04-18T14:15:26.352Z,67.72
2023-04-18T14:20:34.753Z,67.44
2023-04-18T14:25:38.593Z,67.37
2023-04-18T14:30:42.332Z,67.42
2023-04-18T14:35:46.389Z,66.79
2023-04-18T14:40:50.589Z,67.08
2023-04-18T14:45:54.394Z,65.91
2023-04-18T14:51:02.931Z,65.33
2023-04-18T14:56:07.006Z,65.78
2023-04-18T15:01:10.796Z,65.07
2023-04-18T15:06:14.526Z,65.25
2023-04-18T15:11:18.314Z,66.36
2023-04-18T15:16:22.168Z,67.07
2023-04-18T15:21:25.863Z,68.70
2023-04-18T15:26:31.631Z,70.03
2023-04-18T15:31:39.074Z,71.31
2023-04-18T15:36:43.196Z,72.44
2023-04-18T15:41:47.717Z,72.92
2023-04-18T15:46:51.370Z,73.28
2023-04-18T15:51:55.104Z,73.42
2023-04-18T15:56:58.767Z,73.76
2023-04-18T16:02:02.723Z,74.39
2023-04-18T16:07:06.913Z,74.14
2023-04-18T16:12:10.692Z,74.92
2023-04-18T16:17:14.370Z,75.52
2023-04-18T16:22:18.096Z,75.52
2023-04-18T16:27:21.830Z,75.68
2023-04-18T16:32:26.429Z,75.70
2023-04-18T16:37:32.020Z,76.05
2023-04-18T16:42:36.567Z,76.62
2023-04-18T16:47:40.980Z,76.28
2023-04-18T16:52:45.362Z,76.31
2023-04-18T16:57:50.150Z,76.65
2023-04-18T17:02:56.411Z,76.72
2023-04-18T17:08:01.192Z,76.86
2023-04-18T17:13:05.798Z,77.40
2023-04-18T17:18:09.729Z,77.56
2023-04-18T17:23:14.372Z,77.57
2023-04-18T17:28:18.437Z,77.80
2023-04-18T17:33:24.013Z,78.45
2023-04-18T17:38:28.741Z,78.66
2023-04-18T17:43:34.111Z,79.02
2023-04-18T17:48:41.841Z,79.59
2023-04-18T17:53:47.613Z,79.65
2023-04-18T17:58:57.611Z,80.19
2023-04-18T18:04:03.655Z,80.30
2023-04-18T18:09:09.338Z,80.55
2023-04-18T18:14:15.075Z,80.68
2023-04-18T18:19:22.020Z,80.68
2023-04-18T18:24:27.942Z,80.62
2023-04-18T18:29:35.090Z,80.26
2023-04-18T18:34:41.869Z,80.30
2023-04-18T18:39:51.101Z,80.70
2023-04-18T18:44:57.251Z,80.62
2023-04-18T18:50:03.339Z,80.53
2023-04-18T18:55:10.018Z,80.47
2023-04-18T19:00:18.029Z,80.36
2023-04-18T19:05:27.965Z,80.27
2023-04-18T19:10:34.091Z,80.13
2023-04-18T19:15:44.021Z,80.26
2023-04-18T19:20:51.489Z,80.24
2023-04-18T19:25:59.120Z,80.33
2023-04-18T19:31:06.910Z,80.41
2023-04-18T19:36:11.892Z,80.31
2023-04-18T19:41:17.840Z,80.24
2023-04-18T19:46:24.218Z,80.09
2023-04-18T19:51:30.971Z,79.70
2023-04-18T19:56:39.541Z,79.32
2023-04-18T20:01:45.273Z,79.15
2023-04-18T20:06:51.358Z,79.03
2023-04-18T20:11:56.216Z,78.83
2023-04-18T20:17:00.900Z,78.82
2023-04-18T20:22:07.165Z,78.79
2023-04-18T20:27:12.627Z,78.82
2023-04-18T20:32:18.204Z,78.80
2023-04-18T20:37:24.584Z,78.86
2023-04-18T20:42:28.783Z,78.99
2023-04-18T20:47:34.278Z,78.99
2023-04-18T20:52:43.143Z,79.05
2023-04-18T20:57:47.248Z,79.17
2023-04-18T21:02:52.497Z,79.46
2023-04-18T21:07:56.870Z,79.61
2023-04-18T21:13:00.741Z,79.77
2023-04-18T21:18:04.714Z,79.88
2023-04-18T21:23:08.544Z,80.09
2023-04-18T21:28:12.857Z,80.16
2023-04-18T21:33:17.069Z,80.37
2023-04-18T21:38:25.653Z,80.28
2023-04-18T21:43:29.474Z,80.46
2023-04-18T21:48:33.199Z,80.66
2023-04-18T21:53:38.889Z,80.81
2023-04-18T21:58:42.652Z,80.89
2023-04-18T22:03:46.578Z,80.57
2023-04-18T22:08:51.965Z,80.44
2023-04-18T22:13:58.515Z,80.55
2023-04-18T22:19:02.338Z,80.61
2023-04-18T22:24:06.870Z,80.65
2023-04-18T22:29:10.635Z,80.64
2023-04-18T22:34:14.567Z,80.66
2023-04-18T22:39:18.762Z,80.63
2023-04-18T22:44:22.530Z,80.54
2023-04-18T22:49:26.539Z,80.48
2023-04-18T22:54:30.160Z,80.61
2023-04-18T22:59:34.287Z,80.79
2023-04-18T23:04:38.171Z,80.79
2023-04-18T23:09:41.982Z,80.95
2023-04-18T23:14:45.566Z,81.23
2023-04-18T23:19:49.294Z,81.24
2023-04-18T23:24:53.015Z,81.29
2023-04-18T23:29:56.815Z,81.67
2023-04-18T23:35:04.452Z,82.05
2023-04-18T23:40:09.473Z,82.13
2023-04-18T23:45:13.257Z,82.00
2023-04-18T23:50:17.095Z,82.22
2023-04-18T23:55:20.792Z,82.09
